Logo AVAMET
Benvolgut visitant, si us plau, ingressa Recuperar contrasenya

Picassent

Dades diàries. Acumulats / Últims 30 dies disponibles

Data Temperatura (°C) Humitat rel. (%) Pressió rel. (hPa) Vent (km/h) Precipitació
Mínima Mitjana Màxima Amplitud
tèrmica
Mínima Mitjana Màxima Mínima Mitjana Màxima Predom. Mitjana Ràfega
màxima
Total
(mm)
Índex-n
Mínima Mitjana Màxima Mínima Mitjana Màxima n
0 a 1
P0 max
mm 5'
Dades mensuals acumulades fins l'últim dia disponible
05/2019 9,8 14,5 20,7 18,7 18,9 23,2 32,4 22,6 25 65 95 1.003 1.015 1.026   6,7 47,4 5,7
Dades anuals acumulades fins l'últim dia disponible
2019 1,8 9,8 20,7 14,2 11,9 19,3 32,4 30,6 15 61 98 994 1.020 1.037   6,5 62,2 157,4
Últims 30 dies disponibles
21-05-2019 16,3     18,2     22,4 6,1 63 75 87 1.015 1.016 1.018 OSO 5,9 23,7 1,3
20-05-2019 12,9     18,0     22,6 9,7 43 60 81 1.012 1.013 1.015 SSO 7,6 29,8 0,0
19-05-2019 12,6     18,0     24,4 11,8 25 55 80 1.010 1.011 1.013 SO 5,7 38,9 0,0
18-05-2019 13,3     16,6     18,9 5,6 44 58 79 1.009 1.010 1.012 SSO 5,8 23,3 0,8
17-05-2019 16,1     19,8     23,9 7,8 31 47 84 1.003 1.006 1.011 NO 13,3 47,4 0,0
16-05-2019 16,4     18,6     21,7 5,3 56 71 83 1.006 1.012 1.016 SSO 7,2 29,8 0,0
15-05-2019 14,6     18,8     22,6 8,0 53 68 80 1.012 1.013 1.016 SSE 5,3 23,7 0,0
14-05-2019 14,6     19,7     26,2 11,6 37 65 90 1.014 1.019 1.023 SO 7,3 33,5 0,0
13-05-2019 15,7     19,3     23,9 8,2 28 66 91 1.019 1.021 1.023 S 6,4 28,1 0,0
12-05-2019 15,4     19,3     23,3 7,9 42 66 84 1.020 1.023 1.026 SSO 5,7 28,1 0,0
11-05-2019 18,0     21,3     25,8 7,8 41 67 83 1.015 1.019 1.025 SE 5,8 25,2 0,0
10-05-2019 20,7     26,1     32,4 11,7 25 47 68 1.012 1.013 1.015 O 7,3 34,2 0,0
09-05-2019 19,1     23,2     29,4 10,3 32 50 64 1.011 1.013 1.015 O 7,5 40,0 0,0
08-05-2019 12,2     24,8     28,3 16,1 37 48 64 1.010 1.012 1.014 O 8,9 43,8
07-05-2019 12,2     16,6     22,4 10,2 64 81 91 1.015 1.018 1.020 SSO 4,9 20,2 0,0
06-05-2019 11,1     15,4     18,9 7,8 60 75 87 1.018 1.019 1.021 SO 5,9 21,6 0,0
05-05-2019 13,2     16,2     19,1 5,9 30 59 82 1.014 1.016 1.018 SSO 7,3 30,5 0,0
04-05-2019 9,8     15,6     20,9 11,1 37 65 87 1.011 1.013 1.015 SO 6,8 30,5 0,0
03-05-2019 12,2     14,6     18,9 6,7 62 78 88 1.012 1.014 1.016 SO 4,8 24,4 0,8
02-05-2019 14,7     16,7     20,8 6,1 53 79 95 1.015 1.016 1.018 SSO 5,2 21,6 0,8
01-05-2019 13,2     16,1     19,8 6,6 58 82 93 1.014 1.016 1.018 SSO 5,6 22,6 2,0 0,38 0,50
30-04-2019 12,6     16,5     20,1 7,5 60 80 92 1.017 1.018 1.020 SSO 5,9 25,2 0,0
29-04-2019 12,6     15,7     18,8 6,2 68 80 88 1.018 1.020 1.022 SO 5,4 20,9 0,0
28-04-2019 12,4     16,5     20,9 8,5 50 69 85 1.021 1.023 1.026 SO 5,3 22,6 0,0
27-04-2019 11,2     16,9     21,1 9,9 36 58 80 1.024 1.026 1.028 SSO 6,3 28,1 0,0
26-04-2019 11,8     16,5     22,2 10,4 37 55 70 1.019 1.022 1.026 OSO 8,1 29,8 0,0
25-04-2019 14,7     17,3     21,1 6,4 37 56 72 1.010 1.013 1.019 OSO 8,5 35,2 0,0
24-04-2019 9,1     15,9     22,5 13,4 35 55 74 1.005 1.009 1.011 SO 6,9 28,7 0,0
23-04-2019 11,5     15,0     21,6 10,1 45 74 93 999 1.000 1.005 SSO 4,9 41,3 2,6 0,50
22-04-2019 12,2     14,4     17,3 5,1 66 80 93 1.001 1.003 1.008 OSO 4,3 23,7 6,3
Últims 13 mesos disponibles
04/2019 8,6 11,6 14,7 15,4 15,2 19,9 29,9 21,3 37 65 96 1.000 1.014 1.026 SO 7,2 47,7 132,7
03/2019 6,9 9,8 15,7 14,7 12,8 20,0 28,6 21,7 38 56 88 1.011 1.024 1.031 SO 5,9 49,2 19,0
02/2019 4,7 7,5 10,9 12,3 12,5 17,8 26,1 21,4 33 62 78 996 1.026 1.035 OSO 6,1 62,2 0,0
01/2019 1,8 7,0 12,7 11,3 11,9 16,8 20,2 18,4 39 56 76 1.003 1.020 1.031 SO 6,5 59,0 0,0
12/2018 4,7 9,6 14,5 13,3 14,2 18,1 22,8 18,1 50 67 90 1.009 1.026 1.031 O 5,7 46,1 12,2
11/2018 7,3 11,8 15,6 14,7 14,3 18,3 24,1 16,8 50 72 96 1.003 1.016 1.025 O 5,8 51,1 136,3
10/2018 7,6 15,2 19,6 19,0 13,7 22,7 28,3 20,7 43 69 90 1.002 1.016 1.027 5,6 51,0 177,6
09/2018 16,2 20,5 22,8 23,9 21,4 27,3 30,6 14,4 57 76 94 1.013 1.019 1.028 34,0 117,6
08/2018 20,7 23,8 26,9 26,7 25,3 29,5 35,8 15,1 53 69 86 1.013 1.017 1.021 44,0 9,0
07/2018 21,6 23,4 25,9 26,1 24,3 28,9 36,1 14,5 55 71 84 1.010 1.015 1.020 38,0 2,6
06/2018 14,8 18,8 24,2 22,6 22,3 26,4 31,1 16,3 46 65 80 1.010 1.015 1.021 40,0 111,7
05/2018 9,5 14,8 18,5 19,1 16,9 23,5 28,7 19,2 45 64 82 1.010 1.015 1.018 41,0 28,0
04/2018 9,2 12,5 16,7 16,2 13,8 20,0 25,5 16,3 46 62 82 996 1.014 1.025 72,0 25,5
Tots els anys disponibles
2018 2,4 14,9 26,9 18,3 5,9 21,9 36,1 33,7 36 66 96 994 1.017 1.037 O 1,0 74,0 751,9
Temperatura (°C)
Humitat relativa (%)
Velocitat del vent i ràfega màxima (km/h)
Direcció del vent (°)
Pressió (hPa)
Precipitació (mm)
Nota sobre les dades: s'avisa a l'usuari de la provisionalitat i no oficialitat d'aquestes dades
Logo AVAMET blanc
Web allotjada a Sollutia
Llicència de Creative CommonsLa web d'AVAMET i els seus continguts estan subjectes a una llicència de
Reconeixement - No Comercial - Compartir igual
Properes estacions: Altea - Club Nàutic d'Altea (Soci), Ontinyent - El Pilar (Soci), Ares del Maestrat (Ajuntament Soci), Catadau - L'Altet (Inforatge)     - - - - -      Últimes estacions: Jacarilla - centro (MeteOrihuela), Elx - Maitino/Vallverda/Velarde/Matola/Ferriol (Soci TiempoElche.com), Orihuela - Playa Flamenca (MeteOrihuela), Puçol - Ciutat Jardí (Soci), Alzira - La Casella (Soci) - - -